sensor_id;sensor_type;location;lat;lon;timestamp;temperature;humidity
45549;DHT22;31270;48.328;10.096;2022-10-31T00:00:47;11.20;99.90
45549;DHT22;31270;48.328;10.096;2022-10-31T00:03:13;11.10;99.90
45549;DHT22;31270;48.328;10.096;2022-10-31T00:05:47;11.20;99.90
45549;DHT22;31270;48.328;10.096;2022-10-31T00:08:13;11.20;99.90
45549;DHT22;31270;48.328;10.096;2022-10-31T00:10:41;11.20;99.90
45549;DHT22;31270;48.328;10.096;2022-10-31T00:13:08;11.10;99.90
45549;DHT22;31270;48.328;10.096;2022-10-31T00:15:34;11.20;99.90
45549;DHT22;31270;48.328;10.096;2022-10-31T00:18:01;11.10;99.90
45549;DHT22;31270;48.328;10.096;2022-10-31T00:20:27;11.10;99.90
45549;DHT22;31270;48.328;10.096;2022-10-31T00:22:52;11.20;99.90
45549;DHT22;31270;48.328;10.096;2022-10-31T00:25:18;11.00;99.90
45549;DHT22;31270;48.328;10.096;2022-10-31T00:27:45;11.00;99.90
45549;DHT22;31270;48.328;10.096;2022-10-31T00:30:11;11.00;99.90
45549;DHT22;31270;48.328;10.096;2022-10-31T00:32:37;11.00;99.90
45549;DHT22;31270;48.328;10.096;2022-10-31T00:35:03;11.10;99.90
45549;DHT22;31270;48.328;10.096;2022-10-31T00:37:29;11.00;99.90
45549;DHT22;31270;48.328;10.096;2022-10-31T00:39:54;11.20;99.90
45549;DHT22;31270;48.328;10.096;2022-10-31T00:42:20;11.10;99.90
45549;DHT22;31270;48.328;10.096;2022-10-31T00:44:45;11.00;99.90
45549;DHT22;31270;48.328;10.096;2022-10-31T00:47:12;10.90;99.90
45549;DHT22;31270;48.328;10.096;2022-10-31T00:49:38;10.90;99.90
45549;DHT22;31270;48.328;10.096;2022-10-31T00:52:04;10.90;99.90
45549;DHT22;31270;48.328;10.096;2022-10-31T00:54:29;11.00;99.90
45549;DHT22;31270;48.328;10.096;2022-10-31T00:56:56;11.00;99.90
45549;DHT22;31270;48.328;10.096;2022-10-31T00:59:22;10.90;99.90
45549;DHT22;31270;48.328;10.096;2022-10-31T01:01:48;10.90;99.90
45549;DHT22;31270;48.328;10.096;2022-10-31T01:04:14;10.80;99.90
45549;DHT22;31270;48.328;10.096;2022-10-31T01:06:40;10.80;99.90
45549;DHT22;31270;48.328;10.096;2022-10-31T01:09:06;10.80;99.90
45549;DHT22;31270;48.328;10.096;2022-10-31T01:11:31;10.90;99.90
45549;DHT22;31270;48.328;10.096;2022-10-31T01:13:57;10.70;99.90
45549;DHT22;31270;48.328;10.096;2022-10-31T01:16:25;10.80;99.90
45549;DHT22;31270;48.328;10.096;2022-10-31T01:18:51;10.70;99.90
45549;DHT22;31270;48.328;10.096;2022-10-31T01:21:21;10.70;99.90
45549;DHT22;31270;48.328;10.096;2022-10-31T01:23:47;10.60;99.90
45549;DHT22;31270;48.328;10.096;2022-10-31T01:26:15;10.60;99.90
45549;DHT22;31270;48.328;10.096;2022-10-31T01:28:50;10.50;99.90
45549;DHT22;31270;48.328;10.096;2022-10-31T01:31:18;10.60;99.90
45549;DHT22;31270;48.328;10.096;2022-10-31T01:33:45;10.50;99.90
45549;DHT22;31270;48.328;10.096;2022-10-31T01:36:13;10.60;99.90
45549;DHT22;31270;48.328;10.096;2022-10-31T01:38:39;10.50;99.90
45549;DHT22;31270;48.328;10.096;2022-10-31T01:41:05;10.50;99.90
45549;DHT22;31270;48.328;10.096;2022-10-31T01:48:55;10.30;99.90
45549;DHT22;31270;48.328;10.096;2022-10-31T01:51:26;10.30;99.90
45549;DHT22;31270;48.328;10.096;2022-10-31T01:53:55;10.30;99.90
45549;DHT22;31270;48.328;10.096;2022-10-31T01:56:22;10.20;99.90
45549;DHT22;31270;48.328;10.096;2022-10-31T01:58:48;10.20;99.90
45549;DHT22;31270;48.328;10.096;2022-10-31T02:01:16;10.10;99.90
45549;DHT22;31270;48.328;10.096;2022-10-31T02:03:42;10.20;99.90
45549;DHT22;31270;48.328;10.096;2022-10-31T02:06:13;10.00;99.90
45549;DHT22;31270;48.328;10.096;2022-10-31T02:08:44;10.10;99.90
45549;DHT22;31270;48.328;10.096;2022-10-31T02:11:11;10.10;99.90
45549;DHT22;31270;48.328;10.096;2022-10-31T02:13:37;10.10;99.90
45549;DHT22;31270;48.328;10.096;2022-10-31T02:16:03;10.20;99.90
45549;DHT22;31270;48.328;10.096;2022-10-31T02:18:30;10.10;99.90
45549;DHT22;31270;48.328;10.096;2022-10-31T02:21:02;10.20;99.90
45549;DHT22;31270;48.328;10.096;2022-10-31T02:26:31;10.00;99.90
45549;DHT22;31270;48.328;10.096;2022-10-31T02:32:00;10.00;99.90
45549;DHT22;31270;48.328;10.096;2022-10-31T02:37:25;10.00;99.90
45549;DHT22;31270;48.328;10.096;2022-10-31T02:40:05;10.00;99.90
45549;DHT22;31270;48.328;10.096;2022-10-31T02:47:49;9.80;99.90
45549;DHT22;31270;48.328;10.096;2022-10-31T02:50:28;9.80;99.90
45549;DHT22;31270;48.328;10.096;2022-10-31T02:52:56;9.80;99.90
45549;DHT22;31270;48.328;10.096;2022-10-31T02:57:56;9.80;99.90
45549;DHT22;31270;48.328;10.096;2022-10-31T03:00:24;9.70;99.90
45549;DHT22;31270;48.328;10.096;2022-10-31T03:05:55;9.60;99.90
45549;DHT22;31270;48.328;10.096;2022-10-31T03:11:11;9.70;99.90
45549;DHT22;31270;48.328;10.096;2022-10-31T03:18:50;9.70;99.90
45549;DHT22;31270;48.328;10.096;2022-10-31T03:21:25;9.70;99.90
45549;DHT22;31270;48.328;10.096;2022-10-31T03:26:36;9.60;99.90
45549;DHT22;31270;48.328;10.096;2022-10-31T03:29:06;9.60;99.90
45549;DHT22;31270;48.328;10.096;2022-10-31T03:31:39;9.70;99.90
45549;DHT22;31270;48.328;10.096;2022-10-31T03:34:07;9.60;99.90
45549;DHT22;31270;48.328;10.096;2022-10-31T03:36:36;9.60;99.90
45549;DHT22;31270;48.328;10.096;2022-10-31T03:39:04;9.60;99.90
45549;DHT22;31270;48.328;10.096;2022-10-31T03:41:35;9.60;99.90
45549;DHT22;31270;48.328;10.096;2022-10-31T03:44:07;9.60;99.90
45549;DHT22;31270;48.328;10.096;2022-10-31T03:46:34;9.60;99.90
45549;DHT22;31270;48.328;10.096;2022-10-31T03:49:01;9.60;99.90
45549;DHT22;31270;48.328;10.096;2022-10-31T03:51:40;9.60;99.90
45549;DHT22;31270;48.328;10.096;2022-10-31T03:54:36;9.50;99.90
45549;DHT22;31270;48.328;10.096;2022-10-31T03:59:37;9.60;99.90
45549;DHT22;31270;48.328;10.096;2022-10-31T04:02:14;9.60;99.90
45549;DHT22;31270;48.328;10.096;2022-10-31T04:04:41;9.50;99.90
45549;DHT22;31270;48.328;10.096;2022-10-31T04:07:10;9.50;99.90
45549;DHT22;31270;48.328;10.096;2022-10-31T04:09:38;9.60;99.90
45549;DHT22;31270;48.328;10.096;2022-10-31T04:12:07;9.50;99.90
45549;DHT22;31270;48.328;10.096;2022-10-31T04:14:36;9.50;99.90
45549;DHT22;31270;48.328;10.096;2022-10-31T04:17:07;9.40;99.90
45549;DHT22;31270;48.328;10.096;2022-10-31T04:19:33;9.40;99.90
45549;DHT22;31270;48.328;10.096;2022-10-31T04:21:59;9.40;99.90
45549;DHT22;31270;48.328;10.096;2022-10-31T04:26:58;9.30;99.90
45549;DHT22;31270;48.328;10.096;2022-10-31T04:29:24;9.30;99.90
45549;DHT22;31270;48.328;10.096;2022-10-31T04:31:49;9.30;99.90
45549;DHT22;31270;48.328;10.096;2022-10-31T04:34:15;9.30;99.90
45549;DHT22;31270;48.328;10.096;2022-10-31T04:36:41;9.40;99.90
45549;DHT22;31270;48.328;10.096;2022-10-31T04:39:06;9.30;99.90
45549;DHT22;31270;48.328;10.096;2022-10-31T04:41:32;9.20;99.90
45549;DHT22;31270;48.328;10.096;2022-10-31T04:43:58;9.20;99.90
45549;DHT22;31270;48.328;10.096;2022-10-31T04:46:23;9.20;99.90
45549;DHT22;31270;48.328;10.096;2022-10-31T04:48:49;9.20;99.90
45549;DHT22;31270;48.328;10.096;2022-10-31T04:51:14;9.20;99.90
45549;DHT22;31270;48.328;10.096;2022-10-31T04:53:40;9.10;99.90
45549;DHT22;31270;48.328;10.096;2022-10-31T04:56:06;9.10;99.90
45549;DHT22;31270;48.328;10.096;2022-10-31T04:58:32;9.10;99.90
45549;DHT22;31270;48.328;10.096;2022-10-31T05:00:57;9.10;99.90
45549;DHT22;31270;48.328;10.096;2022-10-31T05:03:23;9.10;99.90
45549;DHT22;31270;48.328;10.096;2022-10-31T05:05:49;9.00;99.90
45549;DHT22;31270;48.328;10.096;2022-10-31T05:08:15;9.00;99.90
45549;DHT22;31270;48.328;10.096;2022-10-31T05:10:40;9.00;99.90
45549;DHT22;31270;48.328;10.096;2022-10-31T05:13:08;8.90;99.90
45549;DHT22;31270;48.328;10.096;2022-10-31T05:15:34;8.90;99.90
45549;DHT22;31270;48.328;10.096;2022-10-31T05:17:59;8.80;99.90
45549;DHT22;31270;48.328;10.096;2022-10-31T05:20:27;8.80;99.90
45549;DHT22;31270;48.328;10.096;2022-10-31T05:22:54;8.80;99.90
45549;DHT22;31270;48.328;10.096;2022-10-31T05:25:22;8.80;99.90
45549;DHT22;31270;48.328;10.096;2022-10-31T05:27:49;8.80;99.90
45549;DHT22;31270;48.328;10.096;2022-10-31T05:30:18;8.80;99.90
45549;DHT22;31270;48.328;10.096;2022-10-31T05:32:47;8.90;99.90
45549;DHT22;31270;48.328;10.096;2022-10-31T05:35:15;8.80;99.90
45549;DHT22;31270;48.328;10.096;2022-10-31T05:37:41;8.70;99.90
45549;DHT22;31270;48.328;10.096;2022-10-31T05:40:09;8.80;99.90
45549;DHT22;31270;48.328;10.096;2022-10-31T05:42:38;8.70;99.90
45549;DHT22;31270;48.328;10.096;2022-10-31T05:45:05;8.70;99.90
45549;DHT22;31270;48.328;10.096;2022-10-31T05:47:31;8.70;99.90
45549;DHT22;31270;48.328;10.096;2022-10-31T05:49:57;8.60;99.90
45549;DHT22;31270;48.328;10.096;2022-10-31T05:52:23;8.60;99.90
45549;DHT22;31270;48.328;10.096;2022-10-31T05:54:48;8.60;99.90
45549;DHT22;31270;48.328;10.096;2022-10-31T05:57:14;8.50;99.90
45549;DHT22;31270;48.328;10.096;2022-10-31T05:59:39;8.60;99.90
45549;DHT22;31270;48.328;10.096;2022-10-31T06:02:05;8.50;99.90
45549;DHT22;31270;48.328;10.096;2022-10-31T06:04:30;8.50;99.90
45549;DHT22;31270;48.328;10.096;2022-10-31T06:06:56;8.60;99.90
45549;DHT22;31270;48.328;10.096;2022-10-31T06:09:22;8.60;99.90
45549;DHT22;31270;48.328;10.096;2022-10-31T06:11:48;8.60;99.90
45549;DHT22;31270;48.328;10.096;2022-10-31T06:14:13;8.50;99.90
45549;DHT22;31270;48.328;10.096;2022-10-31T06:16:39;8.50;99.90
45549;DHT22;31270;48.328;10.096;2022-10-31T06:19:04;8.50;99.90
45549;DHT22;31270;48.328;10.096;2022-10-31T06:21:30;8.50;99.90
45549;DHT22;31270;48.328;10.096;2022-10-31T06:23:56;8.50;99.90
45549;DHT22;31270;48.328;10.096;2022-10-31T06:26:21;8.50;99.90
45549;DHT22;31270;48.328;10.096;2022-10-31T06:28:47;8.50;99.90
45549;DHT22;31270;48.328;10.096;2022-10-31T06:31:12;8.60;99.90
45549;DHT22;31270;48.328;10.096;2022-10-31T06:33:40;8.60;99.90
45549;DHT22;31270;48.328;10.096;2022-10-31T06:36:06;8.60;99.90
45549;DHT22;31270;48.328;10.096;2022-10-31T06:38:31;8.60;99.90
45549;DHT22;31270;48.328;10.096;2022-10-31T06:40:57;8.60;99.90
45549;DHT22;31270;48.328;10.096;2022-10-31T06:43:22;8.70;99.90
45549;DHT22;31270;48.328;10.096;2022-10-31T06:45:48;8.70;99.90
45549;DHT22;31270;48.328;10.096;2022-10-31T06:48:14;8.70;99.90
45549;DHT22;31270;48.328;10.096;2022-10-31T06:50:39;8.70;99.90
45549;DHT22;31270;48.328;10.096;2022-10-31T06:53:05;8.80;99.90
45549;DHT22;31270;48.328;10.096;2022-10-31T06:55:32;8.80;99.90
45549;DHT22;31270;48.328;10.096;2022-10-31T06:57:59;8.90;99.90
45549;DHT22;31270;48.328;10.096;2022-10-31T07:00:26;8.90;99.90
45549;DHT22;31270;48.328;10.096;2022-10-31T07:02:56;8.90;99.90
45549;DHT22;31270;48.328;10.096;2022-10-31T07:05:22;9.00;99.90
45549;DHT22;31270;48.328;10.096;2022-10-31T07:07:52;9.10;99.90
45549;DHT22;31270;48.328;10.096;2022-10-31T07:10:18;9.30;99.90
45549;DHT22;31270;48.328;10.096;2022-10-31T07:12:44;9.20;99.90
45549;DHT22;31270;48.328;10.096;2022-10-31T07:15:09;9.30;99.90
45549;DHT22;31270;48.328;10.096;2022-10-31T07:17:35;9.40;99.90
45549;DHT22;31270;48.328;10.096;2022-10-31T07:20:01;9.40;99.90
45549;DHT22;31270;48.328;10.096;2022-10-31T07:22:34;9.50;99.90
45549;DHT22;31270;48.328;10.096;2022-10-31T07:25:00;9.70;99.90
45549;DHT22;31270;48.328;10.096;2022-10-31T07:27:25;9.70;99.90
45549;DHT22;31270;48.328;10.096;2022-10-31T07:29:51;9.80;99.90
45549;DHT22;31270;48.328;10.096;2022-10-31T07:32:17;9.90;99.90
45549;DHT22;31270;48.328;10.096;2022-10-31T07:34:42;10.00;99.90
45549;DHT22;31270;48.328;10.096;2022-10-31T07:37:08;10.10;99.90
45549;DHT22;31270;48.328;10.096;2022-10-31T07:39:33;10.30;99.90
45549;DHT22;31270;48.328;10.096;2022-10-31T07:41:59;10.20;99.90
45549;DHT22;31270;48.328;10.096;2022-10-31T07:44:25;10.30;99.90
45549;DHT22;31270;48.328;10.096;2022-10-31T07:46:50;10.50;99.90
45549;DHT22;31270;48.328;10.096;2022-10-31T07:49:16;10.60;99.90
45549;DHT22;31270;48.328;10.096;2022-10-31T07:51:41;10.60;99.90
45549;DHT22;31270;48.328;10.096;2022-10-31T07:54:07;10.70;99.90
45549;DHT22;31270;48.328;10.096;2022-10-31T07:56:33;10.80;99.90
45549;DHT22;31270;48.328;10.096;2022-10-31T07:58:58;10.80;99.90
45549;DHT22;31270;48.328;10.096;2022-10-31T08:01:25;10.90;99.90
45549;DHT22;31270;48.328;10.096;2022-10-31T08:03:51;10.90;99.90
45549;DHT22;31270;48.328;10.096;2022-10-31T08:06:16;11.10;99.90
45549;DHT22;31270;48.328;10.096;2022-10-31T08:08:42;11.00;99.90
45549;DHT22;31270;48.328;10.096;2022-10-31T08:11:08;11.10;99.90
45549;DHT22;31270;48.328;10.096;2022-10-31T08:13:33;11.10;99.90
45549;DHT22;31270;48.328;10.096;2022-10-31T08:16:00;11.10;99.90
45549;DHT22;31270;48.328;10.096;2022-10-31T08:18:30;11.10;99.90
45549;DHT22;31270;48.328;10.096;2022-10-31T08:20:56;11.10;99.90
45549;DHT22;31270;48.328;10.096;2022-10-31T08:23:22;11.20;99.90
45549;DHT22;31270;48.328;10.096;2022-10-31T08:25:47;11.10;99.90
45549;DHT22;31270;48.328;10.096;2022-10-31T08:28:13;11.20;99.90
45549;DHT22;31270;48.328;10.096;2022-10-31T08:30:40;11.30;99.90
45549;DHT22;31270;48.328;10.096;2022-10-31T08:33:12;11.40;99.90
45549;DHT22;31270;48.328;10.096;2022-10-31T08:35:39;11.50;99.90
45549;DHT22;31270;48.328;10.096;2022-10-31T08:38:04;11.70;99.90
45549;DHT22;31270;48.328;10.096;2022-10-31T08:40:31;11.80;99.90
45549;DHT22;31270;48.328;10.096;2022-10-31T08:43:05;11.90;99.90
45549;DHT22;31270;48.328;10.096;2022-10-31T08:45:32;12.00;99.90
45549;DHT22;31270;48.328;10.096;2022-10-31T08:47:59;12.10;99.90
45549;DHT22;31270;48.328;10.096;2022-10-31T08:50:26;12.20;99.90
45549;DHT22;31270;48.328;10.096;2022-10-31T08:52:52;12.40;99.90
45549;DHT22;31270;48.328;10.096;2022-10-31T08:55:18;12.60;99.90
45549;DHT22;31270;48.328;10.096;2022-10-31T08:57:44;12.70;99.90
45549;DHT22;31270;48.328;10.096;2022-10-31T09:00:10;12.80;99.90
45549;DHT22;31270;48.328;10.096;2022-10-31T09:02:35;13.00;99.90
45549;DHT22;31270;48.328;10.096;2022-10-31T09:05:04;13.20;99.90
45549;DHT22;31270;48.328;10.096;2022-10-31T09:07:30;13.30;99.90
45549;DHT22;31270;48.328;10.096;2022-10-31T09:09:55;13.40;99.90
45549;DHT22;31270;48.328;10.096;2022-10-31T09:12:21;13.50;99.90
45549;DHT22;31270;48.328;10.096;2022-10-31T09:14:49;13.50;99.90
45549;DHT22;31270;48.328;10.096;2022-10-31T09:17:15;13.60;99.90
45549;DHT22;31270;48.328;10.096;2022-10-31T09:19:40;13.80;99.90
45549;DHT22;31270;48.328;10.096;2022-10-31T09:22:06;13.60;99.90
45549;DHT22;31270;48.328;10.096;2022-10-31T09:24:32;13.70;99.90
45549;DHT22;31270;48.328;10.096;2022-10-31T09:26:58;13.90;99.90
45549;DHT22;31270;48.328;10.096;2022-10-31T09:29:24;13.80;99.90
45549;DHT22;31270;48.328;10.096;2022-10-31T09:31:49;13.90;99.90
45549;DHT22;31270;48.328;10.096;2022-10-31T09:34:15;14.00;99.90
45549;DHT22;31270;48.328;10.096;2022-10-31T09:36:42;14.00;99.90
45549;DHT22;31270;48.328;10.096;2022-10-31T09:39:08;14.20;99.90
45549;DHT22;31270;48.328;10.096;2022-10-31T09:44:43;14.30;99.90
45549;DHT22;31270;48.328;10.096;2022-10-31T09:47:26;14.40;99.90
45549;DHT22;31270;48.328;10.096;2022-10-31T09:50:22;14.50;99.90
45549;DHT22;31270;48.328;10.096;2022-10-31T09:53:00;14.50;99.90
45549;DHT22;31270;48.328;10.096;2022-10-31T09:55:40;14.60;99.90
45549;DHT22;31270;48.328;10.096;2022-10-31T09:58:25;14.60;99.90
45549;DHT22;31270;48.328;10.096;2022-10-31T10:00:54;14.60;99.90
45549;DHT22;31270;48.328;10.096;2022-10-31T10:06:18;14.60;99.90
45549;DHT22;31270;48.328;10.096;2022-10-31T10:08:44;14.50;99.90
45549;DHT22;31270;48.328;10.096;2022-10-31T10:11:35;14.60;99.90
45549;DHT22;31270;48.328;10.096;2022-10-31T10:15:05;14.60;99.90
45549;DHT22;31270;48.328;10.096;2022-10-31T10:27:51;15.20;99.90
45549;DHT22;31270;48.328;10.096;2022-10-31T10:30:41;15.20;99.90
45549;DHT22;31270;48.328;10.096;2022-10-31T10:33:13;15.30;99.90
45549;DHT22;31270;48.328;10.096;2022-10-31T10:35:47;15.30;99.90
45549;DHT22;31270;48.328;10.096;2022-10-31T10:38:28;15.30;99.90
45549;DHT22;31270;48.328;10.096;2022-10-31T10:40:54;15.40;99.90
45549;DHT22;31270;48.328;10.096;2022-10-31T10:43:37;15.60;99.90
45549;DHT22;31270;48.328;10.096;2022-10-31T10:46:23;15.50;99.90
45549;DHT22;31270;48.328;10.096;2022-10-31T10:58:11;15.50;99.90
45549;DHT22;31270;48.328;10.096;2022-10-31T11:00:20;15.60;99.90
45549;DHT22;31270;48.328;10.096;2022-10-31T11:02:46;15.60;99.90
45549;DHT22;31270;48.328;10.096;2022-10-31T11:05:22;15.70;99.90
45549;DHT22;31270;48.328;10.096;2022-10-31T11:07:48;15.70;99.90
45549;DHT22;31270;48.328;10.096;2022-10-31T11:10:15;15.90;99.90
45549;DHT22;31270;48.328;10.096;2022-10-31T11:12:43;15.90;99.90
45549;DHT22;31270;48.328;10.096;2022-10-31T11:15:20;16.00;99.90
45549;DHT22;31270;48.328;10.096;2022-10-31T11:17:52;16.10;99.90
45549;DHT22;31270;48.328;10.096;2022-10-31T11:22:46;16.20;99.90
45549;DHT22;31270;48.328;10.096;2022-10-31T11:25:23;16.30;99.90
45549;DHT22;31270;48.328;10.096;2022-10-31T11:28:02;16.30;99.90
45549;DHT22;31270;48.328;10.096;2022-10-31T11:30:30;16.20;99.90
45549;DHT22;31270;48.328;10.096;2022-10-31T11:32:56;16.40;99.90
45549;DHT22;31270;48.328;10.096;2022-10-31T11:35:24;16.50;99.90
45549;DHT22;31270;48.328;10.096;2022-10-31T11:37:52;16.60;99.90
45549;DHT22;31270;48.328;10.096;2022-10-31T11:40:23;16.70;99.90
45549;DHT22;31270;48.328;10.096;2022-10-31T11:42:51;16.90;99.90
45549;DHT22;31270;48.328;10.096;2022-10-31T11:47:50;16.90;99.90
45549;DHT22;31270;48.328;10.096;2022-10-31T11:50:21;17.10;99.90
45549;DHT22;31270;48.328;10.096;2022-10-31T11:52:48;17.20;99.90
45549;DHT22;31270;48.328;10.096;2022-10-31T11:57:56;17.30;99.90
45549;DHT22;31270;48.328;10.096;2022-10-31T12:00:30;17.60;99.90
45549;DHT22;31270;48.328;10.096;2022-10-31T12:06:03;18.00;99.90
45549;DHT22;31270;48.328;10.096;2022-10-31T12:08:32;18.00;99.90
45549;DHT22;31270;48.328;10.096;2022-10-31T12:13:55;18.10;99.90
45549;DHT22;31270;48.328;10.096;2022-10-31T12:16:51;18.30;99.90
45549;DHT22;31270;48.328;10.096;2022-10-31T12:29:57;18.00;99.90
45549;DHT22;31270;48.328;10.096;2022-10-31T12:32:55;18.30;99.90
45549;DHT22;31270;48.328;10.096;2022-10-31T12:38:58;18.20;99.90
45549;DHT22;31270;48.328;10.096;2022-10-31T12:41:45;18.20;99.90
45549;DHT22;31270;48.328;10.096;2022-10-31T12:44:41;17.90;99.90
45549;DHT22;31270;48.328;10.096;2022-10-31T12:47:35;17.80;99.90
45549;DHT22;31270;48.328;10.096;2022-10-31T12:52:54;17.80;99.90
45549;DHT22;31270;48.328;10.096;2022-10-31T12:55:44;17.70;99.90
45549;DHT22;31270;48.328;10.096;2022-10-31T12:58:24;17.70;99.90
45549;DHT22;31270;48.328;10.096;2022-10-31T13:03:37;17.90;99.90
45549;DHT22;31270;48.328;10.096;2022-10-31T13:06:09;17.80;99.90
45549;DHT22;31270;48.328;10.096;2022-10-31T13:09:08;17.80;99.90
45549;DHT22;31270;48.328;10.096;2022-10-31T13:12:23;17.90;99.90
45549;DHT22;31270;48.328;10.096;2022-10-31T13:14:35;18.00;99.90
45549;DHT22;31270;48.328;10.096;2022-10-31T13:17:03;17.90;99.90
45549;DHT22;31270;48.328;10.096;2022-10-31T13:19:44;18.10;99.90
45549;DHT22;31270;48.328;10.096;2022-10-31T13:22:17;17.90;99.90
45549;DHT22;31270;48.328;10.096;2022-10-31T13:27:30;18.00;99.90
45549;DHT22;31270;48.328;10.096;2022-10-31T13:30:12;17.90;99.90
45549;DHT22;31270;48.328;10.096;2022-10-31T13:32:50;17.80;99.90
45549;DHT22;31270;48.328;10.096;2022-10-31T13:35:31;17.70;99.90
45549;DHT22;31270;48.328;10.096;2022-10-31T13:41:18;17.60;99.90
45549;DHT22;31270;48.328;10.096;2022-10-31T13:48:57;17.50;99.90
45549;DHT22;31270;48.328;10.096;2022-10-31T13:51:33;17.40;99.90
45549;DHT22;31270;48.328;10.096;2022-10-31T13:56:50;17.40;99.90
45549;DHT22;31270;48.328;10.096;2022-10-31T13:59:25;17.40;99.90
45549;DHT22;31270;48.328;10.096;2022-10-31T14:01:59;17.40;99.90
45549;DHT22;31270;48.328;10.096;2022-10-31T14:04:47;17.60;99.90
45549;DHT22;31270;48.328;10.096;2022-10-31T14:07:16;17.60;99.90
45549;DHT22;31270;48.328;10.096;2022-10-31T14:09:56;17.70;99.90
45549;DHT22;31270;48.328;10.096;2022-10-31T14:12:39;17.70;99.90
45549;DHT22;31270;48.328;10.096;2022-10-31T14:15:18;17.70;99.90
45549;DHT22;31270;48.328;10.096;2022-10-31T14:18:05;17.60;99.90
45549;DHT22;31270;48.328;10.096;2022-10-31T14:20:43;17.70;99.90
45549;DHT22;31270;48.328;10.096;2022-10-31T14:31:37;17.90;99.90
45549;DHT22;31270;48.328;10.096;2022-10-31T14:35:09;17.90;99.90
45549;DHT22;31270;48.328;10.096;2022-10-31T14:45:20;17.70;99.90
45549;DHT22;31270;48.328;10.096;2022-10-31T14:50:50;17.80;99.90
45549;DHT22;31270;48.328;10.096;2022-10-31T14:53:31;17.80;99.90
45549;DHT22;31270;48.328;10.096;2022-10-31T14:55:58;17.80;99.90
45549;DHT22;31270;48.328;10.096;2022-10-31T15:00:57;17.70;99.90
45549;DHT22;31270;48.328;10.096;2022-10-31T15:03:37;17.70;99.90
45549;DHT22;31270;48.328;10.096;2022-10-31T15:06:11;17.60;99.90
45549;DHT22;31270;48.328;10.096;2022-10-31T15:08:48;17.50;99.90
45549;DHT22;31270;48.328;10.096;2022-10-31T15:11:21;17.40;99.90
45549;DHT22;31270;48.328;10.096;2022-10-31T15:13:52;17.50;99.90
45549;DHT22;31270;48.328;10.096;2022-10-31T15:16:25;17.40;99.90
45549;DHT22;31270;48.328;10.096;2022-10-31T15:18:57;17.30;99.90
45549;DHT22;31270;48.328;10.096;2022-10-31T15:21:26;17.20;99.90
45549;DHT22;31270;48.328;10.096;2022-10-31T15:23:58;17.20;99.90
45549;DHT22;31270;48.328;10.096;2022-10-31T15:26:38;17.10;99.90
45549;DHT22;31270;48.328;10.096;2022-10-31T15:29:12;16.90;99.90
45549;DHT22;31270;48.328;10.096;2022-10-31T15:31:38;16.90;99.90
45549;DHT22;31270;48.328;10.096;2022-10-31T15:34:17;16.80;99.90
45549;DHT22;31270;48.328;10.096;2022-10-31T15:36:48;16.80;99.90
45549;DHT22;31270;48.328;10.096;2022-10-31T15:39:15;16.70;99.90
45549;DHT22;31270;48.328;10.096;2022-10-31T15:41:52;16.70;99.90
45549;DHT22;31270;48.328;10.096;2022-10-31T15:44:28;16.50;99.90
45549;DHT22;31270;48.328;10.096;2022-10-31T15:47:02;16.50;99.90
45549;DHT22;31270;48.328;10.096;2022-10-31T15:51:57;16.30;99.90
45549;DHT22;31270;48.328;10.096;2022-10-31T15:54:25;16.20;99.90
45549;DHT22;31270;48.328;10.096;2022-10-31T15:56:51;16.10;99.90
45549;DHT22;31270;48.328;10.096;2022-10-31T15:59:22;16.00;99.90
45549;DHT22;31270;48.328;10.096;2022-10-31T16:02:07;15.90;99.90
45549;DHT22;31270;48.328;10.096;2022-10-31T16:04:34;15.80;99.90
45549;DHT22;31270;48.328;10.096;2022-10-31T16:07:21;15.60;99.90
45549;DHT22;31270;48.328;10.096;2022-10-31T16:09:58;15.50;99.90
45549;DHT22;31270;48.328;10.096;2022-10-31T16:12:45;15.40;99.90
45549;DHT22;31270;48.328;10.096;2022-10-31T16:15:18;15.30;99.90
45549;DHT22;31270;48.328;10.096;2022-10-31T16:17:49;15.20;99.90
45549;DHT22;31270;48.328;10.096;2022-10-31T16:23:11;14.90;99.90
45549;DHT22;31270;48.328;10.096;2022-10-31T16:25:40;14.90;99.90
45549;DHT22;31270;48.328;10.096;2022-10-31T16:28:14;14.80;99.90
45549;DHT22;31270;48.328;10.096;2022-10-31T16:30:43;14.70;99.90
45549;DHT22;31270;48.328;10.096;2022-10-31T16:35:47;14.50;99.90
45549;DHT22;31270;48.328;10.096;2022-10-31T16:38:13;14.50;99.90
45549;DHT22;31270;48.328;10.096;2022-10-31T16:40:39;14.40;99.90
45549;DHT22;31270;48.328;10.096;2022-10-31T16:43:10;14.30;99.90
45549;DHT22;31270;48.328;10.096;2022-10-31T16:45:37;14.20;99.90
45549;DHT22;31270;48.328;10.096;2022-10-31T16:48:12;14.20;99.90
45549;DHT22;31270;48.328;10.096;2022-10-31T16:50:40;14.10;99.90
45549;DHT22;31270;48.328;10.096;2022-10-31T16:53:05;14.00;99.90
45549;DHT22;31270;48.328;10.096;2022-10-31T16:55:32;13.90;99.90
45549;DHT22;31270;48.328;10.096;2022-10-31T16:58:01;13.90;99.90
45549;DHT22;31270;48.328;10.096;2022-10-31T17:00:27;14.00;99.90
45549;DHT22;31270;48.328;10.096;2022-10-31T17:02:55;13.80;99.90
45549;DHT22;31270;48.328;10.096;2022-10-31T17:05:22;13.70;99.90
45549;DHT22;31270;48.328;10.096;2022-10-31T17:07:58;13.60;99.90
45549;DHT22;31270;48.328;10.096;2022-10-31T17:10:24;13.60;99.90
45549;DHT22;31270;48.328;10.096;2022-10-31T17:12:50;13.50;99.90
45549;DHT22;31270;48.328;10.096;2022-10-31T17:15:19;13.40;99.90
45549;DHT22;31270;48.328;10.096;2022-10-31T17:17:46;13.40;99.90
45549;DHT22;31270;48.328;10.096;2022-10-31T17:20:23;13.30;99.90
45549;DHT22;31270;48.328;10.096;2022-10-31T17:22:49;13.50;99.90
45549;DHT22;31270;48.328;10.096;2022-10-31T17:25:22;13.20;99.90
45549;DHT22;31270;48.328;10.096;2022-10-31T17:27:49;13.20;99.90
45549;DHT22;31270;48.328;10.096;2022-10-31T17:30:16;13.00;99.90
45549;DHT22;31270;48.328;10.096;2022-10-31T17:32:43;13.00;99.90
45549;DHT22;31270;48.328;10.096;2022-10-31T17:35:10;12.90;99.90
45549;DHT22;31270;48.328;10.096;2022-10-31T17:37:36;12.90;99.90
45549;DHT22;31270;48.328;10.096;2022-10-31T17:40:01;12.80;99.90
45549;DHT22;31270;48.328;10.096;2022-10-31T17:42:27;12.80;99.90
45549;DHT22;31270;48.328;10.096;2022-10-31T17:44:53;12.70;99.90
45549;DHT22;31270;48.328;10.096;2022-10-31T17:47:19;12.50;99.90
45549;DHT22;31270;48.328;10.096;2022-10-31T17:49:45;12.60;99.90
45549;DHT22;31270;48.328;10.096;2022-10-31T17:52:10;12.50;99.90
45549;DHT22;31270;48.328;10.096;2022-10-31T17:54:36;12.50;99.90
45549;DHT22;31270;48.328;10.096;2022-10-31T17:57:02;12.50;99.90
45549;DHT22;31270;48.328;10.096;2022-10-31T17:59:27;12.50;99.90